createdAt,value
2022-10-13T00:01:26.876Z,96062.88
2022-10-13T00:03:56.174Z,96063.81
2022-10-13T00:06:27.176Z,96061.16
2022-10-13T00:08:57.191Z,96070.25
2022-10-13T00:11:28.274Z,96072.13
2022-10-13T00:13:59.839Z,96074.78
2022-10-13T00:16:32.409Z,96081.84
2022-10-13T00:19:01.309Z,96075.13
2022-10-13T00:21:31.034Z,96076.53
2022-10-13T00:24:00.131Z,96086.53
2022-10-13T00:26:29.035Z,96090.47
2022-10-13T00:28:58.117Z,96085.75
2022-10-13T00:31:30.231Z,96098.63
2022-10-13T00:34:00.642Z,96105.84
2022-10-13T00:36:30.775Z,96102.38
2022-10-13T00:38:59.991Z,96110.22
2022-10-13T00:41:28.793Z,96115.22
2022-10-13T00:44:02.469Z,96124.94
2022-10-13T00:46:35.282Z,96123.19
2022-10-13T00:49:10.377Z,96123.25
2022-10-13T00:51:44.115Z,96125.72
2022-10-13T00:54:17.021Z,96131.47
2022-10-13T00:56:47.224Z,96136.94
2022-10-13T00:59:27.352Z,96128.47
2022-10-13T01:01:58.704Z,96118.44
2022-10-13T01:04:32.649Z,96140.72
2022-10-13T01:07:03.334Z,96140.13
2022-10-13T01:09:38.322Z,96136.31
2022-10-13T01:12:18.311Z,96140.31
2022-10-13T01:14:56.592Z,96146.66
2022-10-13T01:17:56.145Z,96142.06
2022-10-13T01:21:02.476Z,96133.50
2022-10-13T01:23:41.080Z,96122.09
2022-10-13T01:26:37.875Z,96119.28
2022-10-13T01:29:27.532Z,96125.38
2022-10-13T01:32:20.981Z,96134.19
2022-10-13T01:34:55.108Z,96129.28
2022-10-13T01:37:36.381Z,96143.13
2022-10-13T01:40:34.046Z,96147.03
2022-10-13T01:43:09.512Z,96163.03
2022-10-13T01:45:45.808Z,96165.84
2022-10-13T01:48:16.255Z,96167.56
2022-10-13T01:50:52.971Z,96169.84
2022-10-13T01:53:23.152Z,96169.78
2022-10-13T01:56:01.125Z,96170.94
2022-10-13T01:58:34.037Z,96177.34
2022-10-13T02:01:24.310Z,96178.78
2022-10-13T02:04:14.483Z,96175.53
2022-10-13T02:06:58.667Z,96187.53
2022-10-13T02:09:36.422Z,96175.59
2022-10-13T02:12:12.958Z,96179.59
2022-10-13T02:14:44.980Z,96185.38
2022-10-13T02:17:14.284Z,96183.91
2022-10-13T02:19:45.086Z,96185.38
2022-10-13T02:22:17.299Z,96183.75
2022-10-13T02:24:46.337Z,96181.78
2022-10-13T02:27:15.718Z,96186.97
2022-10-13T02:29:57.004Z,96202.84
2022-10-13T02:32:32.955Z,96188.00
2022-10-13T02:35:01.853Z,96197.41
2022-10-13T02:37:31.638Z,96204.63
2022-10-13T02:40:00.401Z,96215.28
2022-10-13T02:42:29.214Z,96213.56
2022-10-13T02:45:00.373Z,96209.91
2022-10-13T02:47:29.190Z,96214.91
2022-10-13T02:49:58.093Z,96206.69
2022-10-13T02:52:26.891Z,96235.00
2022-10-13T02:54:55.736Z,96224.09
2022-10-13T02:57:24.807Z,96232.66
2022-10-13T02:59:54.413Z,96234.16
2022-10-13T03:02:24.768Z,96236.94
2022-10-13T03:04:54.313Z,96236.81
2022-10-13T03:07:23.189Z,96233.16
2022-10-13T03:09:52.103Z,96236.81
2022-10-13T03:12:21.034Z,96243.91
2022-10-13T03:14:50.183Z,96246.97
2022-10-13T03:17:19.013Z,96244.25
2022-10-13T03:19:47.991Z,96245.84
2022-10-13T03:22:19.910Z,96251.72
2022-10-13T03:24:48.867Z,96246.63
2022-10-13T03:27:17.681Z,96251.84
2022-10-13T03:29:46.484Z,96258.75
2022-10-13T03:32:15.299Z,96257.13
2022-10-13T03:34:44.145Z,96255.72
2022-10-13T03:37:12.974Z,96267.59
2022-10-13T03:39:43.489Z,96268.63
2022-10-13T03:42:13.472Z,96265.06
2022-10-13T03:44:42.940Z,96266.69
2022-10-13T03:47:11.783Z,96265.44
2022-10-13T03:49:40.900Z,96263.44
2022-10-13T03:52:09.938Z,96242.03
2022-10-13T03:54:38.792Z,96273.25
2022-10-13T03:57:08.001Z,96279.75
2022-10-13T03:59:37.228Z,96291.03
2022-10-13T04:02:06.523Z,96284.66
2022-10-13T04:04:36.202Z,96285.88
2022-10-13T04:07:05.089Z,96288.25
2022-10-13T04:09:34.265Z,96289.41
2022-10-13T04:12:03.025Z,96293.16
2022-10-13T04:14:31.828Z,96290.66
2022-10-13T04:17:07.069Z,96287.69
2022-10-13T04:19:35.983Z,96293.16
2022-10-13T04:22:07.597Z,96288.69
2022-10-13T04:24:37.014Z,96295.50
2022-10-13T04:27:05.756Z,96295.56
2022-10-13T04:29:34.588Z,96304.16
2022-10-13T04:32:03.404Z,96304.81
2022-10-13T04:34:32.176Z,96304.91
2022-10-13T04:37:01.255Z,96319.59
2022-10-13T04:39:30.175Z,96318.56
2022-10-13T04:41:59.186Z,96317.88
2022-10-13T04:44:28.245Z,96330.91
2022-10-13T04:46:57.261Z,96333.59
2022-10-13T04:49:26.208Z,96346.22
2022-10-13T04:51:55.173Z,96344.41
2022-10-13T04:54:24.067Z,96341.28
2022-10-13T04:56:52.847Z,96344.78
2022-10-13T04:59:21.883Z,96350.91
2022-10-13T05:01:51.889Z,96357.63
2022-10-13T05:04:20.797Z,96356.91
2022-10-13T05:07:15.929Z,96360.78
2022-10-13T05:09:38.711Z,96348.28
2022-10-13T05:12:12.304Z,96350.31
2022-10-13T05:14:41.329Z,96341.56
2022-10-13T05:17:10.295Z,96363.63
2022-10-13T05:19:39.102Z,96363.03
2022-10-13T05:22:07.971Z,96341.53
2022-10-13T05:24:39.757Z,96372.66
2022-10-13T05:27:11.611Z,96368.81
2022-10-13T05:29:41.152Z,96370.75
2022-10-13T05:32:10.079Z,96373.88
2022-10-13T05:34:38.987Z,96386.25
2022-10-13T05:37:07.860Z,96379.22
2022-10-13T05:39:36.622Z,96390.53
2022-10-13T05:42:05.842Z,96381.78
2022-10-13T05:44:36.899Z,96387.78
2022-10-13T05:47:07.697Z,96404.91
2022-10-13T05:49:42.667Z,96407.91
2022-10-13T05:52:13.782Z,96410.59
2022-10-13T05:54:47.432Z,96403.53
2022-10-13T05:57:27.261Z,96421.00
2022-10-13T06:00:16.284Z,96410.09
2022-10-13T06:03:08.255Z,96415.06
2022-10-13T06:05:37.890Z,96406.41
2022-10-13T06:08:06.853Z,96420.75
2022-10-13T06:10:38.269Z,96413.78
2022-10-13T06:13:07.040Z,96416.13
2022-10-13T06:15:35.898Z,96412.13
2022-10-13T06:18:09.750Z,96424.09
2022-10-13T06:20:38.802Z,96417.47
2022-10-13T06:23:07.577Z,96428.13
2022-10-13T06:25:37.161Z,96428.31
2022-10-13T06:28:05.979Z,96423.72
2022-10-13T06:30:34.762Z,96429.16
2022-10-13T06:33:03.607Z,96432.41
2022-10-13T06:35:33.569Z,96446.97
2022-10-13T06:38:03.235Z,96442.06
2022-10-13T06:40:32.879Z,96452.19
2022-10-13T06:43:01.784Z,96456.84
2022-10-13T06:45:30.658Z,96460.97
2022-10-13T06:47:59.443Z,96455.09
2022-10-13T06:50:28.405Z,96457.44
2022-10-13T06:52:58.221Z,96472.34
2022-10-13T06:55:27.143Z,96463.38
2022-10-13T06:57:55.948Z,96456.59
2022-10-13T07:00:25.277Z,96461.34
2022-10-13T07:02:54.512Z,96464.66
2022-10-13T07:05:23.397Z,96456.38
2022-10-13T07:07:55.350Z,96463.09
2022-10-13T07:10:24.537Z,96460.78
2022-10-13T07:12:53.376Z,96466.28
2022-10-13T07:15:25.391Z,96476.69
2022-10-13T07:17:55.702Z,96474.47
2022-10-13T07:20:25.461Z,96477.97
2022-10-13T07:22:55.139Z,96480.31
2022-10-13T07:25:25.333Z,96485.84
2022-10-13T07:27:54.167Z,96484.00
2022-10-13T07:30:23.341Z,96477.06
2022-10-13T07:32:52.434Z,96486.22
2022-10-13T07:35:25.780Z,96493.78
2022-10-13T07:37:57.037Z,96475.28
2022-10-13T07:40:25.959Z,96495.00
2022-10-13T07:42:57.538Z,96506.19
2022-10-13T07:45:27.163Z,96506.06
2022-10-13T07:47:56.663Z,96503.78
2022-10-13T07:50:25.529Z,96510.13
2022-10-13T07:52:54.466Z,96522.63
2022-10-13T07:55:23.283Z,96521.34
2022-10-13T07:57:56.144Z,96526.06
2022-10-13T08:00:26.013Z,96525.09
2022-10-13T08:02:54.900Z,96527.13
2022-10-13T08:05:23.875Z,96529.06
2022-10-13T08:07:54.770Z,96529.94
2022-10-13T08:10:29.951Z,96536.38
2022-10-13T08:12:58.769Z,96537.81
2022-10-13T08:15:27.613Z,96542.25
2022-10-13T08:17:56.520Z,96554.44
2022-10-13T08:20:36.145Z,96541.53
2022-10-13T08:23:14.745Z,96560.09
2022-10-13T08:25:50.416Z,96561.81
2022-10-13T08:28:26.530Z,96553.63
2022-10-13T08:30:58.624Z,96544.00
2022-10-13T08:33:28.098Z,96559.69
2022-10-13T08:35:57.519Z,96549.81
2022-10-13T08:38:28.167Z,96572.22
2022-10-13T08:40:57.045Z,96567.31
2022-10-13T08:43:26.945Z,96563.19
2022-10-13T08:46:00.482Z,96570.56
2022-10-13T08:48:37.529Z,96569.78
2022-10-13T08:51:08.451Z,96573.09
2022-10-13T08:53:43.511Z,96573.44
2022-10-13T08:56:19.843Z,96577.78
2022-10-13T08:58:51.112Z,96590.38
2022-10-13T09:01:24.845Z,96598.97
2022-10-13T09:03:57.967Z,96607.56
2022-10-13T09:06:37.471Z,96594.41
2022-10-13T09:09:11.432Z,96600.72
2022-10-13T09:11:46.832Z,96603.13
2022-10-13T09:14:28.490Z,96607.38
2022-10-13T09:20:02.870Z,96618.66
2022-10-13T09:22:38.331Z,96605.75
2022-10-13T09:25:21.210Z,96616.09
2022-10-13T09:27:57.724Z,96617.22
2022-10-13T09:30:40.244Z,96619.59
2022-10-13T09:33:12.804Z,96622.25
2022-10-13T09:35:44.912Z,96631.66
2022-10-13T09:38:25.745Z,96630.44
2022-10-13T09:41:16.563Z,96630.72
2022-10-13T09:43:48.423Z,96640.63
2022-10-13T09:46:51.154Z,96651.78
2022-10-13T09:49:39.847Z,96652.41
2022-10-13T09:52:19.443Z,96647.56
2022-10-13T09:54:54.785Z,96652.56
2022-10-13T09:57:36.495Z,96652.72
2022-10-13T10:00:17.183Z,96660.84
2022-10-13T10:02:55.455Z,96667.25
2022-10-13T10:05:26.954Z,96667.00
2022-10-13T10:08:04.875Z,96671.81
2022-10-13T10:10:37.656Z,96667.81
2022-10-13T10:13:13.754Z,96664.31
2022-10-13T10:16:04.939Z,96677.13
2022-10-13T10:18:54.999Z,96678.09
2022-10-13T10:21:37.482Z,96689.72
2022-10-13T10:24:31.692Z,96689.44
2022-10-13T10:27:03.618Z,96699.66
2022-10-13T10:29:51.248Z,96695.63
2022-10-13T10:32:54.537Z,96693.56
2022-10-13T10:35:36.085Z,96711.66
2022-10-13T10:38:26.891Z,96708.88
2022-10-13T10:41:17.266Z,96714.09
2022-10-13T10:44:11.502Z,96716.66
2022-10-13T10:46:47.808Z,96723.47
2022-10-13T10:49:26.439Z,96726.28
2022-10-13T10:51:55.959Z,96734.66
2022-10-13T10:54:52.120Z,96733.44
2022-10-13T10:57:40.772Z,96740.53
2022-10-13T11:00:15.175Z,96748.22
2022-10-13T11:03:08.906Z,96747.22
2022-10-13T11:06:01.156Z,96754.97
2022-10-13T11:08:41.171Z,96766.19
2022-10-13T11:11:33.576Z,96771.81
2022-10-13T11:14:08.815Z,96776.03
2022-10-13T11:16:40.803Z,96769.16
2022-10-13T11:19:33.597Z,96772.88
2022-10-13T11:22:02.397Z,96786.88
2022-10-13T11:24:42.376Z,96782.34
2022-10-13T11:27:16.116Z,96784.50
2022-10-13T11:29:47.867Z,96790.84
2022-10-13T11:32:31.628Z,96785.16
2022-10-13T11:35:18.821Z,96789.28
2022-10-13T11:38:07.199Z,96792.56
2022-10-13T11:40:59.401Z,96797.44
2022-10-13T11:43:44.128Z,96796.69
2022-10-13T11:46:15.781Z,96802.09
2022-10-13T11:49:05.670Z,96804.78
2022-10-13T11:51:46.456Z,96803.31
2022-10-13T11:54:21.137Z,96806.34
2022-10-13T11:56:55.587Z,96803.75
2022-10-13T11:59:36.245Z,96800.41
2022-10-13T12:02:11.765Z,96803.72
2022-10-13T12:04:46.514Z,96803.59
2022-10-13T12:07:17.966Z,96802.19
2022-10-13T12:09:58.169Z,96808.66
2022-10-13T12:12:27.876Z,96804.19
2022-10-13T12:15:01.098Z,96805.56
2022-10-13T12:17:39.480Z,96804.56
2022-10-13T12:20:30.220Z,96803.28
2022-10-13T12:22:59.389Z,96808.47
2022-10-13T12:25:31.066Z,96809.81
2022-10-13T12:28:01.599Z,96821.03
2022-10-13T12:30:36.851Z,96820.75
2022-10-13T12:33:23.553Z,96825.19
2022-10-13T12:35:52.483Z,96828.28
2022-10-13T12:38:23.188Z,96825.94
2022-10-13T12:40:54.216Z,96834.97
2022-10-13T12:43:26.858Z,96838.47
2022-10-13T12:45:55.845Z,96848.09
2022-10-13T12:48:37.503Z,96854.28
2022-10-13T12:51:32.893Z,96848.38
2022-10-13T12:54:06.787Z,96854.41
2022-10-13T12:56:35.785Z,96851.69
2022-10-13T12:59:05.236Z,96857.97
2022-10-13T13:01:35.921Z,96860.19
2022-10-13T13:04:22.372Z,96857.06
2022-10-13T13:06:57.036Z,96867.50
2022-10-13T13:09:39.410Z,96864.47
2022-10-13T13:12:14.076Z,96865.38
2022-10-13T13:14:45.203Z,96861.69
2022-10-13T13:17:38.894Z,96866.63
2022-10-13T13:20:27.809Z,96860.72
2022-10-13T13:22:56.993Z,96867.00
2022-10-13T13:25:26.060Z,96870.31
2022-10-13T13:27:55.214Z,96861.09
2022-10-13T13:30:25.115Z,96870.72
2022-10-13T13:32:54.027Z,96875.50
2022-10-13T13:35:22.943Z,96870.19
2022-10-13T13:37:53.710Z,96873.97
2022-10-13T13:40:25.419Z,96877.22
2022-10-13T13:42:55.165Z,96868.81
2022-10-13T13:45:27.270Z,96873.66
2022-10-13T13:48:00.534Z,96888.59
2022-10-13T13:50:35.642Z,96877.19
2022-10-13T13:53:06.113Z,96876.28
2022-10-13T13:55:35.042Z,96875.13
2022-10-13T13:58:07.200Z,96871.91
2022-10-13T14:00:37.317Z,96876.06
2022-10-13T14:03:06.303Z,96881.00
2022-10-13T14:05:39.061Z,96881.00
2022-10-13T14:08:08.615Z,96878.16
2022-10-13T14:10:42.295Z,96882.13
2022-10-13T14:13:11.111Z,96887.63
2022-10-13T14:15:39.934Z,96887.34
2022-10-13T14:18:08.819Z,96882.31
2022-10-13T14:20:42.707Z,96886.28
2022-10-13T14:23:11.612Z,96889.09
2022-10-13T14:25:40.665Z,96891.66
2022-10-13T14:28:09.519Z,96890.09
2022-10-13T14:30:42.412Z,96892.94
2022-10-13T14:33:11.403Z,96894.25
2022-10-13T14:35:40.281Z,96884.47
2022-10-13T14:38:11.886Z,96904.09
2022-10-13T14:40:43.204Z,96902.81
2022-10-13T14:43:12.087Z,96896.97
2022-10-13T14:45:41.019Z,96884.31
2022-10-13T14:48:12.824Z,96901.00
2022-10-13T14:50:41.754Z,96901.50
2022-10-13T14:53:15.864Z,96902.88
2022-10-13T14:55:45.946Z,96897.06
2022-10-13T14:58:14.992Z,96896.41
2022-10-13T15:00:44.858Z,96893.53
2022-10-13T15:03:13.907Z,96899.91
2022-10-13T15:05:42.733Z,96893.09
2022-10-13T15:08:11.560Z,96898.13
2022-10-13T15:10:40.360Z,96905.53
2022-10-13T15:13:09.225Z,96908.75
2022-10-13T15:15:38.039Z,96910.13
2022-10-13T15:18:06.997Z,96915.22
2022-10-13T15:20:35.814Z,96916.06
2022-10-13T15:23:05.835Z,96911.84
2022-10-13T15:25:34.718Z,96916.66
2022-10-13T15:28:06.710Z,96916.13
2022-10-13T15:30:35.579Z,96914.53
2022-10-13T15:33:10.511Z,96913.25
2022-10-13T15:35:39.462Z,96914.88
2022-10-13T15:38:08.422Z,96912.81
2022-10-13T15:40:41.513Z,96920.22
2022-10-13T15:43:10.476Z,96915.25
2022-10-13T15:45:39.759Z,96912.09
2022-10-13T15:48:10.557Z,96915.88
2022-10-13T15:50:42.330Z,96911.69
2022-10-13T15:53:11.219Z,96913.84
2022-10-13T15:55:40.989Z,96912.28
2022-10-13T15:58:13.736Z,96910.16
2022-10-13T16:00:44.911Z,96921.38
2022-10-13T16:03:18.883Z,96913.97
2022-10-13T16:05:48.747Z,96910.50
2022-10-13T16:08:17.566Z,96911.31
2022-10-13T16:10:46.463Z,96914.69
2022-10-13T16:13:16.004Z,96908.31
2022-10-13T16:15:44.862Z,96912.00
2022-10-13T16:18:13.665Z,96916.78
2022-10-13T16:20:45.878Z,96912.81
2022-10-13T16:23:14.679Z,96920.00
2022-10-13T16:25:43.517Z,96922.44
2022-10-13T16:28:12.406Z,96912.72
2022-10-13T16:30:41.787Z,96908.81
2022-10-13T16:33:10.679Z,96926.13
2022-10-13T16:35:39.657Z,96919.00
2022-10-13T16:38:08.469Z,96922.25
2022-10-13T16:40:39.714Z,96912.50
2022-10-13T16:43:08.679Z,96913.28
2022-10-13T16:45:58.592Z,96917.03
2022-10-13T16:48:28.627Z,96921.78
2022-10-13T16:50:57.526Z,96923.03
2022-10-13T16:53:27.060Z,96922.16
2022-10-13T16:55:55.884Z,96925.78
2022-10-13T16:58:24.832Z,96931.00
2022-10-13T17:00:54.338Z,96933.34
2022-10-13T17:03:23.329Z,96929.84
2022-10-13T17:05:53.963Z,96939.06
2022-10-13T17:08:22.980Z,96931.31
2022-10-13T17:10:57.478Z,96943.41
2022-10-13T17:13:27.436Z,96943.06
2022-10-13T17:15:57.901Z,96934.25
2022-10-13T17:18:28.625Z,96945.09
2022-10-13T17:20:59.979Z,96941.13
2022-10-13T17:23:30.377Z,96946.25
2022-10-13T17:26:04.706Z,96953.97
2022-10-13T17:28:34.997Z,96941.75
2022-10-13T17:31:14.150Z,96954.50
2022-10-13T17:33:43.906Z,96948.09
2022-10-13T17:36:20.729Z,96946.53
2022-10-13T17:38:50.848Z,96948.03
2022-10-13T17:41:20.692Z,96946.69
2022-10-13T17:43:52.064Z,96950.91
2022-10-13T17:46:36.156Z,96950.13
2022-10-13T17:49:08.071Z,96946.34
2022-10-13T17:51:37.015Z,96948.94
2022-10-13T17:54:09.091Z,96953.09
2022-10-13T17:56:40.388Z,96947.78
2022-10-13T17:59:10.488Z,96953.81
2022-10-13T18:01:42.666Z,96955.69
2022-10-13T18:04:17.623Z,96960.13
2022-10-13T18:06:47.078Z,96964.91
2022-10-13T18:09:19.589Z,96959.59
2022-10-13T18:11:51.053Z,96967.06
2022-10-13T18:14:21.941Z,96953.75
2022-10-13T18:16:52.192Z,96965.63
2022-10-13T18:19:22.064Z,96961.59
2022-10-13T18:21:53.380Z,96974.31
2022-10-13T18:24:22.367Z,96966.34
2022-10-13T18:26:51.228Z,96970.78
2022-10-13T18:29:20.567Z,96966.56
2022-10-13T18:31:49.435Z,96973.47
2022-10-13T18:34:18.864Z,96961.75
2022-10-13T18:36:50.925Z,96971.53
2022-10-13T18:39:29.867Z,96966.78
2022-10-13T18:41:58.818Z,96970.06
2022-10-13T18:44:36.034Z,96955.69
2022-10-13T18:47:05.021Z,96965.91
2022-10-13T18:49:34.103Z,96954.66
2022-10-13T18:52:03.375Z,96968.84
2022-10-13T18:54:32.340Z,96967.09
2022-10-13T18:57:01.147Z,96961.03
2022-10-13T18:59:29.968Z,96961.59
2022-10-13T19:01:59.655Z,96967.72
2022-10-13T19:04:28.782Z,96960.81
2022-10-13T19:06:57.909Z,96968.47
2022-10-13T19:09:27.086Z,96961.56
2022-10-13T19:11:58.680Z,96970.84
2022-10-13T19:14:28.183Z,96963.66
2022-10-13T19:17:01.586Z,96961.72
2022-10-13T19:19:31.557Z,96969.28
2022-10-13T19:22:02.799Z,96972.13
2022-10-13T19:24:31.862Z,96969.97
2022-10-13T19:27:00.644Z,96970.19
2022-10-13T19:29:31.094Z,96966.53
2022-10-13T19:32:01.531Z,96973.50
2022-10-13T19:34:30.473Z,96965.84
2022-10-13T19:37:02.333Z,96967.41
2022-10-13T19:39:31.315Z,96964.75
2022-10-13T19:42:00.171Z,96975.91
2022-10-13T19:44:29.564Z,96970.59
2022-10-13T19:46:58.508Z,96969.28
2022-10-13T19:49:27.455Z,96966.94
2022-10-13T19:51:56.782Z,96973.31
2022-10-13T19:54:28.968Z,96984.19
2022-10-13T19:57:00.339Z,96982.88
2022-10-13T19:59:29.124Z,96979.88
2022-10-13T20:01:58.600Z,96986.50
2022-10-13T20:04:27.516Z,96979.59
2022-10-13T20:06:56.406Z,96985.19
2022-10-13T20:09:25.222Z,96991.53
2022-10-13T20:11:54.045Z,96982.53
2022-10-13T20:14:23.158Z,96992.09
2022-10-13T20:16:52.141Z,96984.63
2022-10-13T20:19:21.151Z,96991.53
2022-10-13T20:21:52.182Z,96991.53
2022-10-13T20:24:24.863Z,96997.13
2022-10-13T20:26:54.949Z,96993.75
2022-10-13T20:29:24.976Z,96989.06
2022-10-13T20:31:53.788Z,96994.97
2022-10-13T20:34:22.522Z,96994.19
2022-10-13T20:36:51.965Z,96996.59
2022-10-13T20:39:27.009Z,97000.84
2022-10-13T20:41:59.049Z,97003.22
2022-10-13T20:44:28.054Z,96990.75
2022-10-13T20:46:56.930Z,96997.13
2022-10-13T20:49:26.456Z,96995.31
2022-10-13T20:51:55.695Z,96987.16
2022-10-13T20:54:24.551Z,96995.44
2022-10-13T20:56:53.578Z,96991.00
2022-10-13T20:59:22.432Z,96997.63
2022-10-13T21:01:52.543Z,96997.94
2022-10-13T21:04:21.588Z,97000.69
2022-10-13T21:06:50.505Z,96996.50
2022-10-13T21:09:19.371Z,96998.16
2022-10-13T21:11:48.249Z,97003.50
2022-10-13T21:14:17.042Z,97006.25
2022-10-13T21:16:45.874Z,97008.13
2022-10-13T21:19:15.666Z,97012.38
2022-10-13T21:21:44.683Z,97012.34
2022-10-13T21:24:13.470Z,97014.94
2022-10-13T21:26:42.404Z,97010.38
2022-10-13T21:29:15.677Z,97020.41
2022-10-13T21:31:44.584Z,97023.84
2022-10-13T21:34:13.994Z,97028.53
2022-10-13T21:36:45.078Z,97036.19
2022-10-13T21:39:15.275Z,97037.75
2022-10-13T21:41:44.075Z,97039.56
2022-10-13T21:44:15.407Z,97037.63
2022-10-13T21:46:44.235Z,97047.97
2022-10-13T21:49:13.064Z,97046.63
2022-10-13T21:51:41.836Z,97046.59
2022-10-13T21:54:14.069Z,97044.50
2022-10-13T21:56:43.228Z,97045.72
2022-10-13T21:59:13.506Z,97053.66
2022-10-13T22:01:44.703Z,97053.63
2022-10-13T22:04:16.645Z,97058.16
2022-10-13T22:06:45.570Z,97052.34
2022-10-13T22:09:15.334Z,97061.88
2022-10-13T22:11:44.984Z,97063.47
2022-10-13T22:14:14.272Z,97066.38
2022-10-13T22:16:46.132Z,97072.22
2022-10-13T22:19:16.400Z,97074.59
2022-10-13T22:21:49.092Z,97065.03
2022-10-13T22:24:20.526Z,97083.63
2022-10-13T22:26:50.655Z,97075.66
2022-10-13T22:29:21.855Z,97079.63
2022-10-13T22:31:52.082Z,97071.66
2022-10-13T22:34:20.935Z,97080.44
2022-10-13T22:36:49.747Z,97080.19
2022-10-13T22:39:18.646Z,97076.28
2022-10-13T22:41:47.560Z,97082.75
2022-10-13T22:44:16.534Z,97087.78
2022-10-13T22:46:45.320Z,97091.00
2022-10-13T22:49:15.301Z,97089.47
2022-10-13T22:51:44.151Z,97098.53
2022-10-13T22:54:13.094Z,97096.09
2022-10-13T22:56:42.386Z,97096.31
2022-10-13T22:59:12.788Z,97101.94
2022-10-13T23:01:42.609Z,97099.03
2022-10-13T23:04:11.664Z,97096.69
2022-10-13T23:06:40.683Z,97108.16
2022-10-13T23:09:14.308Z,97099.94
2022-10-13T23:11:43.414Z,97106.56
2022-10-13T23:14:19.776Z,97106.84
2022-10-13T23:16:48.721Z,97111.63
2022-10-13T23:19:17.566Z,97101.66
2022-10-13T23:21:46.390Z,97118.94
2022-10-13T23:24:15.390Z,97120.28
2022-10-13T23:26:44.386Z,97123.72
2022-10-13T23:29:13.153Z,97120.50
2022-10-13T23:31:41.955Z,97123.38
2022-10-13T23:34:11.119Z,97116.44
2022-10-13T23:36:39.997Z,97120.13
2022-10-13T23:39:08.841Z,97124.06
2022-10-13T23:41:38.642Z,97126.16
2022-10-13T23:44:07.575Z,97125.91
2022-10-13T23:46:36.360Z,97130.44
2022-10-13T23:49:05.233Z,97127.28
2022-10-13T23:51:34.308Z,97133.69
2022-10-13T23:54:03.522Z,97138.47
2022-10-13T23:56:32.365Z,97149.38
2022-10-13T23:59:02.031Z,97149.66
